createdAt,value
2023-03-23T15:58:34.045Z,9.13
2023-03-23T16:01:08.326Z,9.50
2023-03-23T16:03:42.628Z,11.07
2023-03-23T16:06:24.535Z,7.93
2023-03-23T16:08:55.344Z,7.95
2023-03-23T16:11:26.268Z,9.43
2023-03-23T16:13:57.297Z,6.82
2023-03-23T16:16:29.308Z,9.63
2023-03-23T16:18:58.518Z,12.73
2023-03-23T16:21:28.000Z,11.98
2023-03-23T16:23:58.286Z,38.85
2023-03-23T16:26:27.481Z,35.70
2023-03-23T16:29:09.895Z,33.28
2023-03-23T16:31:42.387Z,26.50
2023-03-23T16:34:11.766Z,21.35
2023-03-23T16:36:41.436Z,14.80
2023-03-23T16:39:12.506Z,16.42
2023-03-23T16:41:42.542Z,19.02
2023-03-23T16:44:13.986Z,13.05
2023-03-23T16:46:43.174Z,11.10
2023-03-23T16:49:12.470Z,17.17
2023-03-23T16:51:43.195Z,14.23
2023-03-23T16:54:12.635Z,14.32
2023-03-23T16:56:46.232Z,19.30
2023-03-23T16:59:17.176Z,20.67
2023-03-23T17:01:46.947Z,17.45
2023-03-23T17:04:16.315Z,27.58
2023-03-23T17:06:46.399Z,16.50
2023-03-23T17:09:15.932Z,13.48
2023-03-23T17:11:45.823Z,7.13
2023-03-23T17:14:16.994Z,7.97
2023-03-23T17:16:46.538Z,8.32
2023-03-23T17:19:16.407Z,10.95
2023-03-23T17:21:45.814Z,14.63
2023-03-23T17:24:15.048Z,18.50
2023-03-23T17:26:44.587Z,20.17
2023-03-23T17:29:13.817Z,18.42
2023-03-23T17:31:44.811Z,15.50
2023-03-23T17:34:18.735Z,13.27
2023-03-23T17:36:49.008Z,15.38
2023-03-23T17:39:18.483Z,14.10
2023-03-23T17:41:47.977Z,27.10
2023-03-23T17:44:17.185Z,72.10
2023-03-23T17:46:48.447Z,58.60
2023-03-23T17:49:18.141Z,68.50
2023-03-23T17:51:47.430Z,48.70
2023-03-23T17:54:17.021Z,45.88
2023-03-23T17:56:46.353Z,46.63
2023-03-23T17:59:16.469Z,39.33
2023-03-23T18:01:47.947Z,38.60
2023-03-23T18:04:19.980Z,47.33
2023-03-23T18:06:50.527Z,40.50
2023-03-23T18:09:20.113Z,52.17
2023-03-23T18:11:49.978Z,54.78
2023-03-23T18:14:19.728Z,69.43
2023-03-23T18:16:50.512Z,56.78
2023-03-23T18:19:21.950Z,70.18
2023-03-23T18:21:51.139Z,57.35
2023-03-23T18:24:21.034Z,57.65
2023-03-23T18:26:50.319Z,62.22
2023-03-23T18:29:20.298Z,47.20
2023-03-23T18:31:50.757Z,49.28
2023-03-23T18:34:21.603Z,42.58
2023-03-23T18:36:51.204Z,40.08
2023-03-23T18:39:20.622Z,61.30
2023-03-23T18:41:50.058Z,46.83
2023-03-23T18:44:19.587Z,45.78
2023-03-23T18:46:49.041Z,43.17
2023-03-23T18:49:18.363Z,48.63
2023-03-23T18:51:49.129Z,49.28
2023-03-23T18:54:18.982Z,54.15
2023-03-23T18:56:48.254Z,65.13
2023-03-23T18:59:17.974Z,46.50
2023-03-23T19:01:47.223Z,44.60
2023-03-23T19:04:16.954Z,49.33
2023-03-23T19:06:46.502Z,43.40
2023-03-23T19:09:17.297Z,33.22
2023-03-23T19:11:47.471Z,34.97
2023-03-23T19:14:18.147Z,39.70
2023-03-23T19:16:47.495Z,41.92
2023-03-23T19:19:16.937Z,49.17
2023-03-23T19:21:47.283Z,38.72
2023-03-23T19:24:18.852Z,37.58
2023-03-23T19:26:49.039Z,39.80
2023-03-23T19:31:52.866Z,44.30
2023-03-23T19:34:24.089Z,47.60
2023-03-23T19:36:59.650Z,56.08
2023-03-23T19:39:36.952Z,60.08
2023-03-23T19:42:07.183Z,50.72
2023-03-23T19:44:37.845Z,45.17
2023-03-23T19:47:07.522Z,46.97
2023-03-23T19:49:37.251Z,39.15
2023-03-23T19:52:12.534Z,46.70
2023-03-23T19:54:43.845Z,53.58
2023-03-23T19:57:13.258Z,51.63
2023-03-23T19:59:42.988Z,56.92
2023-03-23T20:02:13.584Z,43.53
2023-03-23T20:04:43.694Z,50.88
2023-03-23T20:07:14.869Z,34.05
2023-03-23T20:09:53.349Z,34.30
2023-03-23T20:12:30.311Z,34.63
2023-03-23T20:15:15.354Z,38.53
2023-03-23T20:17:57.800Z,37.45
2023-03-23T20:20:28.119Z,30.85
2023-03-23T20:22:59.059Z,39.20
2023-03-23T20:25:30.957Z,32.65
2023-03-23T20:28:00.766Z,34.28
2023-03-23T20:30:30.390Z,40.83
2023-03-23T20:33:01.010Z,35.20
2023-03-23T20:35:31.144Z,36.55
2023-03-23T20:38:01.151Z,44.17
2023-03-23T20:40:32.820Z,40.78
2023-03-23T20:43:04.031Z,73.22
2023-03-23T20:45:33.494Z,42.72
2023-03-23T20:48:02.849Z,45.67
2023-03-23T20:50:32.421Z,38.17
2023-03-23T20:53:02.209Z,28.58
2023-03-23T20:55:33.299Z,54.20
2023-03-23T20:58:02.783Z,53.15
2023-03-23T21:00:32.207Z,52.55
2023-03-23T21:03:01.383Z,55.58
2023-03-23T21:05:30.916Z,50.45
2023-03-23T21:08:00.120Z,51.92
2023-03-23T21:10:30.738Z,63.17
2023-03-23T21:13:02.380Z,56.03
2023-03-23T21:15:34.047Z,56.80
2023-03-23T21:18:04.449Z,57.55
2023-03-23T21:20:34.566Z,59.97
2023-03-23T21:23:06.595Z,52.22
2023-03-23T21:25:38.217Z,46.83
2023-03-23T21:28:09.731Z,64.60
2023-03-23T21:30:42.000Z,49.45
2023-03-23T21:33:11.779Z,58.63
2023-03-23T21:35:41.822Z,56.58
2023-03-23T21:38:14.509Z,57.03
2023-03-23T21:40:44.287Z,78.47
2023-03-23T21:43:17.114Z,58.70
2023-03-23T21:45:47.165Z,44.10
2023-03-23T21:48:16.798Z,41.40
2023-03-23T21:50:46.314Z,40.67
2023-03-23T21:53:18.515Z,40.05
2023-03-23T21:55:51.670Z,38.92
2023-03-23T21:58:24.631Z,58.47
2023-03-23T22:00:56.581Z,59.63
2023-03-23T22:03:27.246Z,71.20
2023-03-23T22:05:56.690Z,56.47
2023-03-23T22:08:28.729Z,61.88
2023-03-23T22:11:03.185Z,82.75
2023-03-23T22:13:36.079Z,69.55
2023-03-23T22:16:08.520Z,87.90
2023-03-23T22:18:38.384Z,69.88
2023-03-23T22:21:08.966Z,64.10
2023-03-23T22:23:38.264Z,72.68
2023-03-23T22:26:08.786Z,79.10
2023-03-23T22:28:40.537Z,72.13
2023-03-23T22:31:13.441Z,52.55
2023-03-23T22:33:42.757Z,69.80
2023-03-23T22:36:12.842Z,37.78
2023-03-23T22:38:44.566Z,54.88
2023-03-23T22:41:18.778Z,52.72
2023-03-23T22:43:50.772Z,45.37
2023-03-23T22:46:20.364Z,38.67
2023-03-23T22:48:49.740Z,38.03
2023-03-23T22:51:20.833Z,37.70
2023-03-23T22:53:50.753Z,36.10
2023-03-23T22:56:20.699Z,37.10
2023-03-23T22:58:52.268Z,28.95
2023-03-23T23:01:23.667Z,30.83
2023-03-23T23:03:53.047Z,38.65
2023-03-23T23:06:22.754Z,28.65
2023-03-23T23:08:53.064Z,37.70
2023-03-23T23:11:24.387Z,48.65
2023-03-23T23:13:55.804Z,42.75
2023-03-23T23:16:27.780Z,52.08
2023-03-23T23:18:57.812Z,42.90
2023-03-23T23:21:29.171Z,38.60
2023-03-23T23:23:59.046Z,33.53
2023-03-23T23:26:28.336Z,26.10
2023-03-23T23:28:59.421Z,28.27
2023-03-23T23:31:33.708Z,29.35
2023-03-23T23:34:22.399Z,32.75
2023-03-23T23:36:52.207Z,41.08
2023-03-23T23:39:21.660Z,45.78
2023-03-23T23:41:51.361Z,42.85
2023-03-23T23:44:22.255Z,50.95
2023-03-23T23:46:51.890Z,67.57
2023-03-23T23:49:23.185Z,66.75
2023-03-23T23:51:52.546Z,45.40
2023-03-23T23:54:30.250Z,37.00
2023-03-23T23:57:00.017Z,39.75
2023-03-23T23:59:32.983Z,32.92
